Time;durP1;ratioP1;P1;durP2;ratioP2;P2;SDS_P1;SDS_P2;PMS_P1;PMS_P2;Temp;Humidity;BMP_temperature;BMP_pressure;BME280_temperature;BME280_humidity;BME280_pressure;Samples;Min_cycle;Max_cycle;Signal;HPM_P1;HPM_P2
2023/07/06 03:58:20;;;;;;;1.83;1.73;;;;;;;;;;5737877;23;20227;-68
2023/07/06 04:00:48;;;;;;;2.10;2.00;;;;;;;;;;4955545;29;20234;-70
2023/07/06 04:03:15;;;;;;;1.75;1.75;;;;;;;;;;4955618;29;20599;-68
2023/07/06 04:05:47;;;;;;;2.15;1.95;;;;;;;;;;4955529;29;20686;-69
2023/07/06 04:08:16;;;;;;;2.42;2.28;;;;;;;;;;4955591;29;20223;-69
2023/07/06 04:10:43;;;;;;;2.08;1.90;;;;;;;;;;4979527;23;20228;-69
2023/07/06 04:13:11;;;;;;;2.50;2.00;;;;;;;;;;4974882;28;20218;-69
2023/07/06 04:15:41;;;;;;;1.85;1.80;;;;;;;;;;4974807;28;20230;-69
2023/07/06 04:18:08;;;;;;;2.00;1.90;;;;;;;;;;4974767;28;20207;-71
2023/07/06 04:20:35;;;;;;;2.20;2.10;;;;;;;;;;4975613;28;20195;-70
2023/07/06 04:23:02;;;;;;;2.42;2.20;;;;;;;;;;4979335;28;20223;-70
2023/07/06 04:25:31;;;;;;;2.20;2.10;;;;;;;;;;4978796;28;20211;-70
2023/07/06 04:27:59;;;;;;;5.22;2.42;;;;;;;;;;4978715;28;20207;-70
2023/07/06 04:30:27;;;;;;;2.75;2.38;;;;;;;;;;4978342;28;20717;-70
2023/07/06 04:32:56;;;;;;;2.45;2.35;;;;;;;;;;4978363;28;20234;-71
2023/07/06 04:35:24;;;;;;;2.40;2.28;;;;;;;;;;4978621;28;20207;-71
2023/07/06 04:37:52;;;;;;;2.42;2.33;;;;;;;;;;4978573;28;20258;-69
2023/07/06 04:40:20;;;;;;;2.10;1.98;;;;;;;;;;4978482;28;20286;-71
2023/07/06 04:42:48;;;;;;;2.55;2.45;;;;;;;;;;4978153;28;20631;-69
2023/07/06 04:45:15;;;;;;;2.42;2.28;;;;;;;;;;4978339;28;20211;-69
2023/07/06 04:47:44;;;;;;;2.10;2.00;;;;;;;;;;4978086;28;20210;-71
2023/07/06 04:50:17;;;;;;;3.15;2.35;;;;;;;;;;4977839;28;20686;-68
2023/07/06 04:52:45;;;;;;;2.67;2.47;;;;;;;;;;4978282;28;20223;-71
2023/07/06 04:55:12;;;;;;;2.97;2.60;;;;;;;;;;4978304;28;20210;-73
2023/07/06 04:57:39;;;;;;;2.35;2.13;;;;;;;;;;4978222;28;20207;-72
2023/07/06 05:00:13;;;;;;;1.98;1.88;;;;;;;;;;4978173;28;20222;-71
2023/07/06 05:02:42;;;;;;;2.30;2.20;;;;;;;;;;4978234;28;20227;-71
2023/07/06 05:05:11;;;;;;;2.25;2.15;;;;;;;;;;4978070;28;20293;-71
2023/07/06 05:07:41;;;;;;;2.40;2.30;;;;;;;;;;4978064;28;20633;-71
2023/07/06 05:10:09;;;;;;;2.30;2.20;;;;;;;;;;4977910;28;20309;-71
2023/07/06 05:12:36;;;;;;;2.60;2.47;;;;;;;;;;4977551;28;20285;-71
2023/07/06 10:25:46;;;;;;;3.85;3.53;;;;;;;;;;5147383;23;20231;-70
2023/07/06 10:28:16;;;;;;;3.90;3.60;;;;;;;;;;4976451;28;20217;-70
2023/07/06 10:30:45;;;;;;;3.70;3.50;;;;;;;;;;4976698;28;20676;-70
2023/07/06 10:33:17;;;;;;;4.10;3.80;;;;;;;;;;4976738;28;20233;-70
2023/07/06 10:35:48;;;;;;;3.70;3.45;;;;;;;;;;4976629;28;20227;-70
2023/07/06 10:38:16;;;;;;;3.42;3.22;;;;;;;;;;4977078;28;20194;-70
2023/07/06 10:40:50;;;;;;;3.13;2.92;;;;;;;;;;4976508;28;20203;-70
2023/07/06 10:43:20;;;;;;;3.75;3.45;;;;;;;;;;4976531;28;20213;-71
2023/07/06 10:45:48;;;;;;;3.55;3.33;;;;;;;;;;4976158;28;20261;-70
2023/07/06 10:48:16;;;;;;;5.65;3.60;;;;;;;;;;4976170;28;20214;-71
2023/07/06 10:50:45;;;;;;;3.58;3.28;;;;;;;;;;4976357;28;20223;-70
2023/07/06 10:53:18;;;;;;;3.85;3.55;;;;;;;;;;4976256;28;20576;-70
2023/07/06 10:55:58;;;;;;;3.72;3.42;;;;;;;;;;4975885;28;20718;-71
2023/07/06 10:58:27;;;;;;;4.15;3.85;;;;;;;;;;4976170;28;20250;-71
2023/07/06 11:00:55;;;;;;;4.65;4.35;;;;;;;;;;4976023;28;20202;-71
2023/07/06 11:03:24;;;;;;;3.38;3.17;;;;;;;;;;4976073;28;20203;-70
2023/07/06 11:05:58;;;;;;;3.45;3.25;;;;;;;;;;4975939;28;20234;-71
2023/07/06 11:08:55;;;;;;;4.10;3.80;;;;;;;;;;4975622;28;20679;-71
2023/07/06 11:11:25;;;;;;;4.07;3.78;;;;;;;;;;4916196;29;20228;-70
2023/07/06 11:13:53;;;;;;;4.10;3.80;;;;;;;;;;4963117;28;20195;-70
2023/07/06 11:16:23;;;;;;;3.63;3.42;;;;;;;;;;4975814;28;20238;-70
2023/07/06 11:18:53;;;;;;;4.32;4.00;;;;;;;;;;4975550;28;20194;-70
2023/07/06 11:21:30;;;;;;;3.95;3.65;;;;;;;;;;4975464;28;20222;-70
2023/07/06 11:24:06;;;;;;;4.10;3.80;;;;;;;;;;4975410;28;20228;-70
2023/07/06 11:26:43;;;;;;;3.92;3.63;;;;;;;;;;4975348;28;20210;-71
2023/07/06 11:29:10;;;;;;;4.15;3.85;;;;;;;;;;4975430;28;20253;-69
2023/07/06 11:31:44;;;;;;;3.70;3.47;;;;;;;;;;4975320;28;20230;-69
2023/07/06 11:34:17;;;;;;;3.45;3.25;;;;;;;;;;4975217;28;20226;-70
2023/07/06 11:36:50;;;;;;;4.65;4.25;;;;;;;;;;4975000;28;20278;-70
2023/07/06 11:39:22;;;;;;;3.67;3.40;;;;;;;;;;4975212;28;20187;-70
2023/07/06 11:41:53;;;;;;;4.50;4.10;;;;;;;;;;4975108;28;20187;-70
2023/07/06 11:44:28;;;;;;;4.50;4.10;;;;;;;;;;4975381;28;20233;-70
2023/07/06 11:47:07;;;;;;;7.07;4.22;;;;;;;;;;4975061;28;20245;-70
2023/07/06 11:49:42;;;;;;;4.30;4.00;;;;;;;;;;4975444;28;20194;-70
2023/07/06 11:52:12;;;;;;;4.18;3.83;;;;;;;;;;4976588;28;20220;-70
2023/07/06 11:54:49;;;;;;;4.53;3.88;;;;;;;;;;4978800;28;20227;-70
2023/07/06 11:57:26;;;;;;;3.67;3.47;;;;;;;;;;4975776;28;20214;-70
2023/07/06 12:00:09;;;;;;;3.83;3.63;;;;;;;;;;4974951;28;20186;-70
2023/07/06 12:02:37;;;;;;;3.50;3.28;;;;;;;;;;4974618;28;20554;-70
2023/07/06 12:05:05;;;;;;;3.25;3.08;;;;;;;;;;4974784;28;20226;-70
2023/07/06 12:07:33;;;;;;;3.35;3.15;;;;;;;;;;4974841;28;20256;-70
2023/07/06 12:10:02;;;;;;;3.58;3.38;;;;;;;;;;4974765;28;20241;-70
2023/07/06 12:12:33;;;;;;;3.38;3.17;;;;;;;;;;4974494;28;20218;-70
2023/07/06 12:15:00;;;;;;;3.60;3.40;;;;;;;;;;4974709;28;20226;-71
2023/07/06 12:17:31;;;;;;;3.30;3.10;;;;;;;;;;4974969;28;20214;-71
2023/07/06 12:19:58;;;;;;;3.78;3.50;;;;;;;;;;4974738;28;20191;-71
2023/07/06 12:22:26;;;;;;;3.58;3.38;;;;;;;;;;4974683;28;20272;-71
2023/07/06 12:24:53;;;;;;;3.40;3.10;;;;;;;;;;4974584;28;20222;-71
2023/07/06 12:27:20;;;;;;;3.67;3.38;;;;;;;;;;4974349;28;20210;-71
2023/07/06 12:29:48;;;;;;;3.63;3.42;;;;;;;;;;4974567;28;20203;-71
2023/07/06 12:32:19;;;;;;;3.40;3.20;;;;;;;;;;4974240;28;20219;-71
2023/07/06 12:34:48;;;;;;;3.13;2.92;;;;;;;;;;4974452;28;20223;-71
2023/07/06 12:37:17;;;;;;;3.80;3.50;;;;;;;;;;4974440;28;20230;-71
2023/07/06 12:39:46;;;;;;;3.85;3.45;;;;;;;;;;4974471;28;20230;-71
2023/07/06 12:42:13;;;;;;;3.05;2.95;;;;;;;;;;4976166;28;20199;-70
2023/07/06 12:44:43;;;;;;;3.80;3.60;;;;;;;;;;4978340;28;20226;-72
2023/07/06 12:47:28;;;;;;;3.90;3.60;;;;;;;;;;4977881;28;20679;-72
2023/07/06 12:50:00;;;;;;;3.20;3.00;;;;;;;;;;4978218;28;20188;-72
2023/07/06 12:52:27;;;;;;;3.20;2.80;;;;;;;;;;4978142;28;20203;-72
2023/07/06 12:54:56;;;;;;;3.90;3.60;;;;;;;;;;4978024;28;20242;-72
2023/07/06 12:57:24;;;;;;;3.33;3.13;;;;;;;;;;4977777;28;20662;-71
2023/07/06 12:59:54;;;;;;;3.60;3.30;;;;;;;;;;4978139;28;20203;-71
2023/07/06 13:02:22;;;;;;;3.47;3.28;;;;;;;;;;4978012;28;20230;-71
2023/07/06 13:04:51;;;;;;;3.67;3.47;;;;;;;;;;4977852;28;20232;-71
2023/07/06 13:07:19;;;;;;;3.53;3.22;;;;;;;;;;4977945;28;20214;-72
2023/07/06 13:09:47;;;;;;;3.58;3.35;;;;;;;;;;4977863;28;20237;-71
2023/07/06 13:12:18;;;;;;;2.85;2.75;;;;;;;;;;4977727;28;20211;-71
2023/07/06 13:14:46;;;;;;;4.00;3.70;;;;;;;;;;4977697;28;20230;-71
2023/07/06 13:17:14;;;;;;;3.22;3.03;;;;;;;;;;4977705;28;20203;-71
2023/07/06 13:19:41;;;;;;;3.40;3.20;;;;;;;;;;4977613;28;20209;-71
2023/07/06 13:22:12;;;;;;;3.35;3.15;;;;;;;;;;4977292;28;20203;-71
2023/07/06 13:24:40;;;;;;;3.72;3.53;;;;;;;;;;4977637;28;20227;-71
2023/07/06 13:27:08;;;;;;;3.90;3.42;;;;;;;;;;4977218;28;20210;-71
2023/07/06 13:29:36;;;;;;;3.45;3.17;;;;;;;;;;4977157;28;20571;-71
2023/07/06 13:32:04;;;;;;;3.33;3.10;;;;;;;;;;4977401;28;20742;-71
2023/07/06 13:34:31;;;;;;;3.50;3.30;;;;;;;;;;4977265;28;20255;-71
2023/07/06 13:36:59;;;;;;;4.05;3.75;;;;;;;;;;4977028;28;20547;-71
2023/07/06 13:39:27;;;;;;;3.90;3.70;;;;;;;;;;4977367;28;20257;-71
2023/07/06 13:41:54;;;;;;;4.22;3.92;;;;;;;;;;4977255;28;20209;-71
2023/07/06 13:44:21;;;;;;;4.72;4.22;;;;;;;;;;4977198;28;20223;-71
2023/07/06 13:46:50;;;;;;;5.07;4.68;;;;;;;;;;4977277;28;20226;-71
2023/07/06 13:49:17;;;;;;;4.18;3.88;;;;;;;;;;4976840;28;20663;-71
2023/07/06 13:51:44;;;;;;;4.28;3.97;;;;;;;;;;4977025;28;20598;-71
2023/07/06 13:54:12;;;;;;;4.10;3.70;;;;;;;;;;4976013;28;20229;-71
2023/07/06 13:56:42;;;;;;;4.18;3.88;;;;;;;;;;4977073;28;20203;-71
2023/07/06 13:59:09;;;;;;;4.95;4.53;;;;;;;;;;4976937;28;20207;-71
2023/07/06 14:01:36;;;;;;;4.40;4.10;;;;;;;;;;4977063;28;20633;-71
2023/07/06 14:04:04;;;;;;;4.10;3.80;;;;;;;;;;4976817;28;20230;-72
2023/07/06 14:06:31;;;;;;;3.58;3.38;;;;;;;;;;4976665;28;20716;-71
2023/07/06 14:08:58;;;;;;;3.47;3.15;;;;;;;;;;4976522;28;20206;-71
2023/07/06 14:11:25;;;;;;;3.70;3.50;;;;;;;;;;4976740;28;20194;-71
2023/07/06 14:13:54;;;;;;;3.75;3.55;;;;;;;;;;4978351;28;20209;-71
2023/07/06 14:16:21;;;;;;;4.20;3.90;;;;;;;;;;4976628;28;20215;-71
2023/07/06 14:18:48;;;;;;;4.10;3.80;;;;;;;;;;4976680;28;20245;-70
2023/07/06 14:21:22;;;;;;;4.00;3.75;;;;;;;;;;4976641;28;20324;-70
2023/07/06 14:23:49;;;;;;;4.75;4.35;;;;;;;;;;4976551;28;20187;-70
2023/07/06 14:26:17;;;;;;;4.53;4.22;;;;;;;;;;4976319;28;20578;-70
2023/07/06 14:28:49;;;;;;;3.80;3.50;;;;;;;;;;4976543;28;20246;-70
2023/07/06 14:31:18;;;;;;;4.10;3.80;;;;;;;;;;4976314;28;20187;-70
2023/07/06 14:33:45;;;;;;;4.70;4.30;;;;;;;;;;4976325;28;20210;-70
2023/07/06 14:36:12;;;;;;;4.13;3.83;;;;;;;;;;4976332;28;20206;-70
2023/07/06 14:38:39;;;;;;;4.22;3.92;;;;;;;;;;4976076;28;20670;-70
2023/07/06 14:41:07;;;;;;;4.15;3.67;;;;;;;;;;4976328;28;20217;-70
2023/07/06 14:43:34;;;;;;;3.75;3.45;;;;;;;;;;4976195;28;20640;-70
2023/07/06 14:46:02;;;;;;;3.78;3.47;;;;;;;;;;4976089;28;20230;-71
2023/07/06 14:48:30;;;;;;;4.15;3.78;;;;;;;;;;4976089;28;20203;-71
2023/07/06 14:51:02;;;;;;;4.15;3.85;;;;;;;;;;4976137;28;20211;-71
2023/07/06 14:53:30;;;;;;;3.85;3.55;;;;;;;;;;4976037;28;20230;-71
2023/07/06 14:55:57;;;;;;;4.53;3.80;;;;;;;;;;4975656;28;20227;-71
2023/07/06 14:58:24;;;;;;;3.97;3.67;;;;;;;;;;4975939;28;20214;-71
2023/07/06 15:00:52;;;;;;;4.05;3.78;;;;;;;;;;4975822;28;20207;-70
2023/07/06 15:03:20;;;;;;;3.90;3.60;;;;;;;;;;4975936;28;20206;-70
2023/07/06 15:05:49;;;;;;;4.10;3.80;;;;;;;;;;4975421;28;20233;-70
2023/07/06 15:08:16;;;;;;;3.85;3.55;;;;;;;;;;4975780;28;20203;-70
2023/07/06 15:10:43;;;;;;;3.53;3.33;;;;;;;;;;4975497;28;20207;-70
2023/07/06 15:13:10;;;;;;;3.50;3.30;;;;;;;;;;4975676;28;20230;-70
2023/07/06 15:15:38;;;;;;;3.60;3.40;;;;;;;;;;4975376;28;20228;-70
2023/07/06 15:18:05;;;;;;;4.18;3.78;;;;;;;;;;4975656;28;20207;-70
2023/07/06 15:20:33;;;;;;;3.38;3.17;;;;;;;;;;4975699;28;20202;-70
2023/07/06 15:23:02;;;;;;;4.35;4.03;;;;;;;;;;4975598;28;20199;-70
2023/07/06 15:25:29;;;;;;;4.05;3.75;;;;;;;;;;4975475;28;20226;-70
2023/07/06 15:27:56;;;;;;;4.18;3.88;;;;;;;;;;4975196;28;20215;-70
2023/07/06 15:30:23;;;;;;;4.22;3.92;;;;;;;;;;4975437;28;20218;-70
2023/07/06 15:32:50;;;;;;;4.10;3.80;;;;;;;;;;4975367;28;20223;-70
2023/07/06 15:35:18;;;;;;;4.50;4.03;;;;;;;;;;4975814;28;20227;-71
2023/07/06 15:37:45;;;;;;;4.38;4.07;;;;;;;;;;4977029;28;20293;-71
2023/07/06 15:40:13;;;;;;;3.90;3.60;;;;;;;;;;4977424;28;20693;-72
2023/07/06 15:42:43;;;;;;;3.67;3.47;;;;;;;;;;4977406;28;20202;-72
2023/07/06 15:45:10;;;;;;;3.88;3.58;;;;;;;;;;4976764;28;20227;-72
2023/07/06 15:47:37;;;;;;;3.20;3.00;;;;;;;;;;4974936;28;20206;-72
2023/07/06 15:50:05;;;;;;;3.40;3.20;;;;;;;;;;4975076;28;20214;-71
2023/07/06 15:52:32;;;;;;;2.95;2.75;;;;;;;;;;4975098;28;20218;-72
2023/07/06 15:55:00;;;;;;;2.78;2.58;;;;;;;;;;4975033;28;20315;-72
2023/07/06 15:57:28;;;;;;;3.08;2.95;;;;;;;;;;4974964;28;20253;-72
2023/07/06 15:59:55;;;;;;;2.67;2.58;;;;;;;;;;4974845;28;20210;-72
2023/07/06 16:02:22;;;;;;;3.25;3.05;;;;;;;;;;4974655;28;20670;-72
2023/07/06 16:04:50;;;;;;;3.13;2.90;;;;;;;;;;4974781;28;20225;-73
2023/07/06 16:07:17;;;;;;;2.95;2.85;;;;;;;;;;4975046;28;20213;-73
2023/07/06 16:09:44;;;;;;;3.05;2.85;;;;;;;;;;4975005;28;20210;-73
2023/07/06 16:12:11;;;;;;;3.40;3.25;;;;;;;;;;4974640;28;20222;-73
2023/07/06 16:14:40;;;;;;;2.97;2.88;;;;;;;;;;4974760;28;20234;-73
2023/07/06 16:17:07;;;;;;;3.00;2.80;;;;;;;;;;4974204;28;20205;-73
2023/07/06 16:19:34;;;;;;;3.67;3.38;;;;;;;;;;4974450;28;20207;-73
2023/07/06 16:22:02;;;;;;;3.40;3.10;;;;;;;;;;4974617;28;20205;-73
2023/07/06 16:24:30;;;;;;;3.65;3.35;;;;;;;;;;4974838;28;20258;-73
2023/07/06 16:26:57;;;;;;;3.60;3.30;;;;;;;;;;4974592;28;20217;-72
2023/07/06 16:29:24;;;;;;;3.33;3.13;;;;;;;;;;4974734;28;20207;-72
2023/07/06 16:31:52;;;;;;;3.85;3.53;;;;;;;;;;4974737;28;20206;-73
2023/07/06 16:34:19;;;;;;;3.03;2.88;;;;;;;;;;4974604;28;20237;-72
2023/07/06 16:36:47;;;;;;;3.63;3.33;;;;;;;;;;4974733;28;20222;-72
2023/07/06 16:39:14;;;;;;;4.10;3.75;;;;;;;;;;4974603;28;20666;-72
2023/07/06 16:41:41;;;;;;;3.88;3.65;;;;;;;;;;4974283;28;20213;-73
2023/07/06 16:44:08;;;;;;;4.35;4.03;;;;;;;;;;4974505;28;20222;-72
2023/07/06 16:46:35;;;;;;;3.72;3.53;;;;;;;;;;4974289;28;20203;-72
2023/07/06 16:49:03;;;;;;;4.05;3.80;;;;;;;;;;4974473;28;20205;-73
2023/07/06 16:51:30;;;;;;;3.72;3.50;;;;;;;;;;4974546;28;20210;-72
2023/07/06 16:53:57;;;;;;;3.38;3.22;;;;;;;;;;4974597;28;20230;-72
2023/07/06 16:56:24;;;;;;;3.67;3.47;;;;;;;;;;4975510;28;20218;-71
2023/07/06 16:58:51;;;;;;;3.70;3.50;;;;;;;;;;4975124;28;20214;-71
2023/07/06 17:01:18;;;;;;;3.70;3.40;;;;;;;;;;4974994;28;20213;-70
2023/07/06 17:03:47;;;;;;;3.58;3.38;;;;;;;;;;4974888;28;20199;-71
2023/07/06 17:06:16;;;;;;;2.97;2.88;;;;;;;;;;4974086;28;20708;-71
2023/07/06 17:08:43;;;;;;;3.90;3.60;;;;;;;;;;4974343;28;20203;-71
2023/07/06 17:11:11;;;;;;;3.90;3.60;;;;;;;;;;4974385;28;20209;-71
2023/07/06 17:13:39;;;;;;;4.07;3.78;;;;;;;;;;4974144;28;20221;-71
2023/07/06 17:16:06;;;;;;;3.38;3.17;;;;;;;;;;4973955;28;20681;-71
2023/07/06 17:18:34;;;;;;;4.00;3.70;;;;;;;;;;4974265;28;20210;-71
2023/07/06 17:21:01;;;;;;;3.45;3.25;;;;;;;;;;4974375;28;20203;-71
2023/07/06 17:23:30;;;;;;;3.38;3.17;;;;;;;;;;4974274;28;20199;-71
2023/07/06 17:25:58;;;;;;;4.35;4.05;;;;;;;;;;4974074;28;20233;-71
2023/07/06 17:28:25;;;;;;;3.17;2.97;;;;;;;;;;4975621;28;20237;-71
2023/07/06 17:30:52;;;;;;;3.45;3.25;;;;;;;;;;4977619;28;20187;-71
2023/07/06 17:33:19;;;;;;;3.17;2.97;;;;;;;;;;4977505;28;20226;-71
2023/07/06 17:35:46;;;;;;;3.40;3.17;;;;;;;;;;4977526;28;20230;-71
2023/07/06 17:38:13;;;;;;;3.60;3.33;;;;;;;;;;4977475;28;20209;-71
2023/07/06 17:40:42;;;;;;;3.30;3.13;;;;;;;;;;4977199;28;20214;-71
2023/07/06 17:43:09;;;;;;;3.47;3.28;;;;;;;;;;4977529;28;20222;-71
2023/07/06 17:45:36;;;;;;;3.38;3.08;;;;;;;;;;4977650;28;20223;-71
2023/07/06 17:48:03;;;;;;;3.38;3.15;;;;;;;;;;4977798;28;20209;-71
2023/07/06 17:50:30;;;;;;;2.97;2.80;;;;;;;;;;4977519;28;20210;-72
2023/07/06 17:52:57;;;;;;;3.40;3.20;;;;;;;;;;4977381;28;20225;-72
2023/07/06 17:55:24;;;;;;;2.80;2.60;;;;;;;;;;4977430;28;20231;-73
2023/07/06 17:57:52;;;;;;;3.50;3.25;;;;;;;;;;4977282;28;20209;-73
2023/07/06 18:00:20;;;;;;;3.20;3.00;;;;;;;;;;4976999;28;20203;-73
2023/07/06 18:02:49;;;;;;;3.20;3.00;;;;;;;;;;4977336;28;20234;-73
2023/07/06 18:05:16;;;;;;;3.20;3.00;;;;;;;;;;4976959;28;20772;-73
2023/07/06 18:07:43;;;;;;;3.20;3.00;;;;;;;;;;4977320;28;20206;-72
2023/07/06 18:10:10;;;;;;;3.00;2.80;;;;;;;;;;4977128;28;20257;-73
2023/07/06 18:12:37;;;;;;;3.08;2.92;;;;;;;;;;4976987;28;20207;-72
2023/07/06 18:15:06;;;;;;;2.83;2.67;;;;;;;;;;4976755;28;20767;-73
2023/07/06 18:17:33;;;;;;;3.38;3.15;;;;;;;;;;4977066;28;20210;-72
2023/07/06 18:20:00;;;;;;;3.22;3.03;;;;;;;;;;4976708;28;20198;-72
2023/07/06 18:22:27;;;;;;;3.28;3.00;;;;;;;;;;4977027;28;20198;-72
2023/07/06 18:24:54;;;;;;;3.05;2.95;;;;;;;;;;4977138;28;20229;-74
2023/07/06 18:27:21;;;;;;;3.03;2.83;;;;;;;;;;4976954;28;20218;-73
2023/07/06 18:29:49;;;;;;;3.15;2.95;;;;;;;;;;4976923;28;20206;-73
2023/07/06 18:32:17;;;;;;;3.13;2.92;;;;;;;;;;4976865;28;20187;-72
2023/07/06 18:34:44;;;;;;;2.78;2.67;;;;;;;;;;4976690;28;20594;-73
2023/07/06 18:39:41;;;;;;;3.03;2.80;;;;;;;;;;4992319;23;20226;-69
2023/07/06 18:42:08;;;;;;;3.13;2.92;;;;;;;;;;4976548;28;20226;-70
2023/07/06 18:44:35;;;;;;;2.65;2.55;;;;;;;;;;4976210;28;20688;-69
2023/07/06 18:47:02;;;;;;;2.85;2.65;;;;;;;;;;4976290;28;20202;-69
2023/07/06 18:49:30;;;;;;;3.13;2.78;;;;;;;;;;4976218;28;20226;-70
2023/07/06 18:51:57;;;;;;;2.78;2.67;;;;;;;;;;4976270;28;20206;-70
2023/07/06 18:54:24;;;;;;;2.75;2.65;;;;;;;;;;4976247;28;20222;-70
2023/07/06 18:56:52;;;;;;;3.17;2.97;;;;;;;;;;4976246;28;20207;-71
2023/07/06 18:59:19;;;;;;;2.85;2.75;;;;;;;;;;4976000;28;20245;-71
2023/07/06 19:01:46;;;;;;;3.22;3.05;;;;;;;;;;4975862;28;20721;-71
2023/07/06 19:04:13;;;;;;;2.70;2.60;;;;;;;;;;4975961;28;20199;-72
2023/07/06 19:06:41;;;;;;;3.38;3.15;;;;;;;;;;4975992;28;20207;-70
2023/07/06 19:09:08;;;;;;;2.72;2.60;;;;;;;;;;4975810;28;20226;-70
2023/07/06 19:11:35;;;;;;;2.97;2.58;;;;;;;;;;4975927;28;20202;-70
2023/07/06 19:14:03;;;;;;;3.08;2.88;;;;;;;;;;4975660;28;20226;-70
2023/07/06 19:16:30;;;;;;;3.05;2.85;;;;;;;;;;4976290;28;20207;-70
2023/07/06 19:18:57;;;;;;;2.72;2.60;;;;;;;;;;4975898;28;20768;-70
2023/07/06 19:21:24;;;;;;;3.20;3.00;;;;;;;;;;4975903;28;20210;-70
2023/07/06 19:23:52;;;;;;;2.72;2.63;;;;;;;;;;4975740;28;20207;-70
2023/07/06 19:26:19;;;;;;;2.83;2.67;;;;;;;;;;4975671;28;20202;-72
2023/07/06 19:28:46;;;;;;;2.70;2.50;;;;;;;;;;4975652;28;20313;-72
2023/07/06 19:31:13;;;;;;;2.72;2.50;;;;;;;;;;4975644;28;20229;-72
2023/07/06 19:33:40;;;;;;;2.92;2.78;;;;;;;;;;4975235;28;20225;-73
2023/07/06 19:36:07;;;;;;;3.22;3.03;;;;;;;;;;4975617;28;20207;-73
2023/07/06 19:38:34;;;;;;;2.90;2.70;;;;;;;;;;4975305;28;20710;-73
2023/07/06 19:41:03;;;;;;;2.75;2.65;;;;;;;;;;4975404;28;20693;-73
2023/07/06 19:43:30;;;;;;;2.83;2.63;;;;;;;;;;4975728;28;20301;-73
2023/07/06 19:46:01;;;;;;;2.92;2.72;;;;;;;;;;4975791;28;20203;-73
2023/07/06 19:48:28;;;;;;;3.03;2.83;;;;;;;;;;4975399;28;20241;-72
2023/07/06 19:50:55;;;;;;;2.72;2.55;;;;;;;;;;4974808;28;20226;-72
2023/07/06 19:53:22;;;;;;;2.63;2.53;;;;;;;;;;4974804;28;20223;-72
2023/07/06 19:55:50;;;;;;;2.47;2.38;;;;;;;;;;4975561;28;20288;-71
2023/07/06 19:58:19;;;;;;;3.17;2.97;;;;;;;;;;4975372;28;20773;-73
2023/07/06 20:00:46;;;;;;;2.90;2.70;;;;;;;;;;4975044;28;20206;-73
2023/07/06 20:03:13;;;;;;;2.67;2.50;;;;;;;;;;4975120;28;20199;-73
2023/07/06 20:05:41;;;;;;;2.45;2.35;;;;;;;;;;4975409;28;20206;-72
2023/07/06 20:08:09;;;;;;;2.70;2.50;;;;;;;;;;4975125;28;20266;-72
2023/07/06 20:10:37;;;;;;;2.97;2.78;;;;;;;;;;4975139;28;20199;-72
2023/07/06 20:13:04;;;;;;;2.75;2.65;;;;;;;;;;4975148;28;20298;-73
2023/07/06 20:15:32;;;;;;;2.80;2.60;;;;;;;;;;4975389;28;20207;-74
2023/07/06 20:17:59;;;;;;;2.72;2.63;;;;;;;;;;4975256;28;20223;-73
2023/07/06 20:20:27;;;;;;;2.97;2.78;;;;;;;;;;4975002;28;20663;-72
2023/07/06 20:22:54;;;;;;;2.80;2.70;;;;;;;;;;4974926;28;20667;-72
2023/07/06 20:25:21;;;;;;;2.95;2.80;;;;;;;;;;4975227;28;20214;-71
2023/07/06 20:27:48;;;;;;;2.72;2.63;;;;;;;;;;4974847;28;20227;-68
2023/07/06 20:30:15;;;;;;;2.70;2.50;;;;;;;;;;4974799;28;20207;-69
2023/07/06 20:32:43;;;;;;;2.60;2.50;;;;;;;;;;4974452;28;20694;-69
2023/07/06 20:35:11;;;;;;;2.72;2.63;;;;;;;;;;4974679;28;20231;-69
2023/07/06 20:37:38;;;;;;;2.78;2.67;;;;;;;;;;4974472;28;20243;-69
2023/07/06 20:40:05;;;;;;;3.13;2.92;;;;;;;;;;4974301;28;20550;-69
2023/07/06 20:42:32;;;;;;;3.30;3.00;;;;;;;;;;4974353;28;20569;-69
2023/07/06 20:44:59;;;;;;;3.45;3.15;;;;;;;;;;4974618;28;20200;-70
2023/07/06 20:47:26;;;;;;;3.13;2.92;;;;;;;;;;4974580;28;20207;-69
2023/07/06 20:49:55;;;;;;;3.38;2.83;;;;;;;;;;4974604;28;20214;-69
2023/07/06 20:52:23;;;;;;;2.40;2.30;;;;;;;;;;4974700;28;20230;-69
2023/07/06 20:54:50;;;;;;;3.58;2.88;;;;;;;;;;4974516;28;20271;-70
2023/07/06 20:57:17;;;;;;;2.85;2.75;;;;;;;;;;4974387;28;20720;-69
2023/07/06 20:59:44;;;;;;;3.05;2.75;;;;;;;;;;4974508;28;20242;-69
2023/07/06 21:02:12;;;;;;;3.15;3.03;;;;;;;;;;4974487;28;20207;-69
2023/07/06 21:04:39;;;;;;;3.65;3.35;;;;;;;;;;4978192;28;20210;-69
2023/07/06 21:07:07;;;;;;;3.38;3.17;;;;;;;;;;4978065;28;20210;-69
2023/07/06 21:09:35;;;;;;;2.58;2.47;;;;;;;;;;4978127;28;20231;-69
2023/07/06 21:12:02;;;;;;;3.22;3.03;;;;;;;;;;4977974;28;20207;-69
2023/07/06 21:14:29;;;;;;;3.15;2.95;;;;;;;;;;4977942;28;20224;-69
2023/07/06 21:16:56;;;;;;;3.33;3.10;;;;;;;;;;4977872;28;20207;-69
2023/07/06 21:19:24;;;;;;;3.00;2.90;;;;;;;;;;4977496;28;20227;-69
2023/07/06 21:21:51;;;;;;;3.20;3.00;;;;;;;;;;4977889;28;20230;-69
2023/07/06 21:24:19;;;;;;;3.25;3.05;;;;;;;;;;4977784;28;20203;-69
2023/07/06 21:26:46;;;;;;;2.70;2.60;;;;;;;;;;4977360;28;20683;-69
2023/07/06 21:29:14;;;;;;;3.03;2.83;;;;;;;;;;4977715;28;20219;-69
2023/07/06 21:31:41;;;;;;;3.50;3.25;;;;;;;;;;4977621;28;20207;-69
2023/07/06 21:34:08;;;;;;;2.95;2.75;;;;;;;;;;4977542;28;20223;-69
2023/07/06 21:36:35;;;;;;;3.35;3.08;;;;;;;;;;4977583;28;20230;-69
2023/07/06 21:39:02;;;;;;;3.17;2.97;;;;;;;;;;4977115;28;20315;-69
2023/07/06 21:41:31;;;;;;;3.45;3.25;;;;;;;;;;4977194;28;20687;-69
2023/07/06 21:43:58;;;;;;;3.53;3.33;;;;;;;;;;4977399;28;20195;-69
2023/07/06 21:46:25;;;;;;;4.00;2.83;;;;;;;;;;4977392;28;20214;-69
2023/07/06 21:48:52;;;;;;;3.20;3.00;;;;;;;;;;4976902;28;20571;-69
2023/07/06 21:51:19;;;;;;;2.90;2.70;;;;;;;;;;4977252;28;20203;-69
2023/07/06 21:53:46;;;;;;;3.15;2.95;;;;;;;;;;4977177;28;20203;-69
2023/07/06 21:56:14;;;;;;;3.20;3.00;;;;;;;;;;4977169;28;20215;-69
2023/07/06 21:58:44;;;;;;;2.75;2.55;;;;;;;;;;4976754;28;20638;-69
2023/07/06 22:01:12;;;;;;;3.20;3.00;;;;;;;;;;4977108;28;20298;-69
2023/07/06 22:03:40;;;;;;;3.40;3.20;;;;;;;;;;4977056;28;20234;-69
2023/07/06 22:06:07;;;;;;;3.92;2.95;;;;;;;;;;4976737;28;20694;-69
2023/07/06 22:08:34;;;;;;;3.10;2.90;;;;;;;;;;4977024;28;20255;-68
2023/07/06 22:11:03;;;;;;;3.10;2.90;;;;;;;;;;4976922;28;20203;-68
2023/07/06 22:13:31;;;;;;;3.58;3.28;;;;;;;;;;4976749;28;20294;-68
2023/07/06 22:15:59;;;;;;;3.38;3.17;;;;;;;;;;4976083;28;20230;-68
2023/07/06 22:18:27;;;;;;;4.20;3.25;;;;;;;;;;4976719;28;20235;-68
2023/07/06 22:20:56;;;;;;;3.35;3.15;;;;;;;;;;4976773;28;20214;-68
2023/07/06 22:23:26;;;;;;;4.13;3.72;;;;;;;;;;4976758;28;20287;-68
